createdAt,value
2022-08-30T00:04:01.596Z,12.90
2022-08-30T00:09:04.764Z,12.82
2022-08-30T00:14:08.180Z,12.77
2022-08-30T00:19:11.198Z,12.80
2022-08-30T00:24:17.097Z,12.73
2022-08-30T00:29:20.191Z,12.65
2022-08-30T00:34:23.251Z,12.57
2022-08-30T00:39:29.144Z,12.53
2022-08-30T00:44:32.176Z,12.65
2022-08-30T00:49:37.023Z,12.68
2022-08-30T00:54:45.437Z,12.69
2022-08-30T00:59:51.248Z,12.63
2022-08-30T01:04:56.535Z,12.52
2022-08-30T01:10:03.219Z,12.50
2022-08-30T01:15:07.985Z,12.43
2022-08-30T01:20:15.124Z,12.33
2022-08-30T01:25:24.248Z,12.33
2022-08-30T01:30:27.462Z,12.33
2022-08-30T01:35:39.715Z,12.38
2022-08-30T01:40:42.829Z,12.26
2022-08-30T01:45:46.151Z,12.21
2022-08-30T01:50:49.487Z,12.10
2022-08-30T01:55:52.487Z,12.10
2022-08-30T02:00:55.881Z,12.04
2022-08-30T02:05:58.898Z,12.03
2022-08-30T02:11:02.884Z,12.03
2022-08-30T02:16:08.523Z,12.05
2022-08-30T02:21:13.119Z,12.00
2022-08-30T02:26:18.084Z,12.07
2022-08-30T02:31:24.223Z,11.98
2022-08-30T02:36:30.111Z,12.03
2022-08-30T02:41:33.087Z,11.96
2022-08-30T02:46:36.332Z,11.95
2022-08-30T02:51:40.946Z,11.96
2022-08-30T02:56:44.130Z,11.83
2022-08-30T03:01:47.499Z,11.74
2022-08-30T03:06:50.805Z,11.71
2022-08-30T03:11:54.456Z,11.78
2022-08-30T03:16:57.517Z,11.74
2022-08-30T03:22:00.768Z,11.71
2022-08-30T03:27:04.309Z,11.71
2022-08-30T03:32:07.397Z,11.60
2022-08-30T03:37:10.804Z,11.66
2022-08-30T03:42:14.208Z,11.60
2022-08-30T03:47:19.771Z,11.63
2022-08-30T03:52:23.121Z,11.73
2022-08-30T03:57:26.540Z,11.73
2022-08-30T04:02:32.178Z,11.68
2022-08-30T04:07:35.517Z,11.59
2022-08-30T04:12:38.916Z,11.59
2022-08-30T04:17:42.131Z,11.59
2022-08-30T04:22:45.575Z,11.56
2022-08-30T04:27:48.638Z,11.56
2022-08-30T04:32:54.489Z,11.42
2022-08-30T04:38:01.228Z,11.36
2022-08-30T04:43:05.180Z,11.44
2022-08-30T04:48:08.904Z,11.49
2022-08-30T04:53:14.205Z,11.55
2022-08-30T04:58:17.231Z,11.58
2022-08-30T05:03:20.326Z,11.64
2022-08-30T05:08:26.226Z,11.90
2022-08-30T05:13:35.616Z,11.97
2022-08-30T05:18:39.972Z,12.01
2022-08-30T05:23:45.216Z,12.13
2022-08-30T05:28:49.008Z,12.27
2022-08-30T05:33:54.130Z,12.43
2022-08-30T05:38:57.546Z,12.67
2022-08-30T05:44:06.280Z,12.91
2022-08-30T05:49:12.242Z,12.98
2022-08-30T05:54:18.461Z,13.18
2022-08-30T05:59:22.480Z,13.48
2022-08-30T06:04:25.689Z,13.61
2022-08-30T06:09:29.082Z,14.01
2022-08-30T06:14:35.248Z,14.22
2022-08-30T06:19:41.228Z,14.41
2022-08-30T06:24:59.605Z,14.57
2022-08-30T06:30:02.726Z,14.92
2022-08-30T06:35:06.789Z,15.16
2022-08-30T06:40:10.476Z,15.35
2022-08-30T06:45:13.624Z,15.61
2022-08-30T06:50:18.048Z,15.77
2022-08-30T06:55:21.217Z,16.01
2022-08-30T07:00:24.233Z,16.23
2022-08-30T07:05:30.192Z,16.47
2022-08-30T07:10:33.232Z,16.76
2022-08-30T07:15:43.566Z,17.06
2022-08-30T07:20:49.124Z,17.20
2022-08-30T07:25:52.142Z,17.50
2022-08-30T07:30:55.539Z,17.64
2022-08-30T07:36:00.200Z,17.84
2022-08-30T07:41:06.564Z,18.03
2022-08-30T07:46:09.605Z,18.42
2022-08-30T07:51:15.003Z,18.64
2022-08-30T07:56:18.389Z,18.84
2022-08-30T08:01:23.248Z,19.14
2022-08-30T08:06:32.930Z,19.45
2022-08-30T08:11:42.246Z,19.55
2022-08-30T08:16:47.454Z,20.03
2022-08-30T08:22:04.118Z,20.16
2022-08-30T08:27:13.616Z,20.53
2022-08-30T08:32:16.465Z,21.25
2022-08-30T08:37:20.782Z,21.99
2022-08-30T08:42:37.672Z,22.58
2022-08-30T08:48:11.671Z,23.45
2022-08-30T08:53:52.757Z,23.74
2022-08-30T08:58:58.710Z,23.55
2022-08-30T09:04:11.066Z,24.34
2022-08-30T09:09:16.993Z,25.11
2022-08-30T09:14:24.289Z,25.70
2022-08-30T09:19:59.335Z,25.41
2022-08-30T09:25:21.216Z,26.22
2022-08-30T09:30:29.406Z,26.33
2022-08-30T09:35:43.249Z,26.51
2022-08-30T09:41:28.626Z,26.65
2022-08-30T09:46:31.755Z,27.38
2022-08-30T09:51:53.657Z,26.80
2022-08-30T09:57:17.321Z,27.27
2022-08-30T10:02:37.865Z,27.13
2022-08-30T10:07:56.573Z,27.08
2022-08-30T10:12:59.801Z,27.19
2022-08-30T10:18:28.917Z,27.55
2022-08-30T10:23:56.368Z,28.29
2022-08-30T10:29:19.988Z,28.54
2022-08-30T10:34:30.828Z,28.52
2022-08-30T10:39:41.206Z,28.48
2022-08-30T10:44:50.574Z,28.61
2022-08-30T10:50:03.997Z,28.46
2022-08-30T10:55:19.088Z,28.34
2022-08-30T11:00:36.588Z,28.00
2022-08-30T11:05:46.047Z,28.44
2022-08-30T11:11:16.342Z,28.13
2022-08-30T11:16:20.799Z,28.74
2022-08-30T11:21:33.223Z,28.96
2022-08-30T11:26:45.860Z,28.65
2022-08-30T11:31:49.323Z,28.89
2022-08-30T11:36:52.671Z,29.00
2022-08-30T11:42:35.056Z,27.95
2022-08-30T11:47:48.375Z,27.89
2022-08-30T11:53:15.411Z,28.71
2022-08-30T11:58:44.017Z,29.16
2022-08-30T12:04:07.330Z,29.76
2022-08-30T12:09:31.028Z,29.66
2022-08-30T12:14:49.879Z,29.22
2022-08-30T12:19:53.703Z,29.39
2022-08-30T12:24:57.456Z,29.23
2022-08-30T12:30:05.297Z,27.60
2022-08-30T12:35:08.319Z,28.39
2022-08-30T12:40:21.011Z,28.11
2022-08-30T12:45:28.051Z,28.38
2022-08-30T12:50:36.972Z,28.73
2022-08-30T12:56:01.293Z,28.13
2022-08-30T13:01:29.264Z,28.27
2022-08-30T13:06:50.441Z,28.22
2022-08-30T13:11:54.538Z,28.79
2022-08-30T13:17:22.456Z,29.05
2022-08-30T13:22:33.756Z,28.38
2022-08-30T13:27:38.648Z,28.14
2022-08-30T13:32:43.864Z,27.89
2022-08-30T13:37:49.705Z,27.75
2022-08-30T13:42:54.204Z,26.05
2022-08-30T13:47:57.328Z,26.87
2022-08-30T13:53:00.730Z,26.40
2022-08-30T13:58:03.745Z,26.35
2022-08-30T14:03:08.549Z,26.07
2022-08-30T14:13:38.355Z,28.31
2022-08-30T14:19:01.841Z,28.38
2022-08-30T14:24:07.273Z,28.05
2022-08-30T14:29:12.272Z,27.69
2022-08-30T14:34:16.543Z,27.16
2022-08-30T14:39:21.374Z,27.38
2022-08-30T14:44:26.110Z,27.93
2022-08-30T14:49:29.181Z,27.83
2022-08-30T14:54:33.296Z,28.02
2022-08-30T14:59:36.368Z,27.14
2022-08-30T15:04:39.345Z,26.84
2022-08-30T15:09:43.146Z,26.79
2022-08-30T15:14:46.187Z,26.67
2022-08-30T15:19:52.302Z,26.38
2022-08-30T15:24:56.540Z,25.56
2022-08-30T15:29:59.781Z,25.60
2022-08-30T15:35:04.611Z,25.57
2022-08-30T15:40:08.461Z,24.91
2022-08-30T15:45:11.841Z,24.96
2022-08-30T15:50:15.547Z,24.87
2022-08-30T15:55:19.072Z,24.57
2022-08-30T16:00:22.101Z,24.59
2022-08-30T16:05:26.024Z,24.27
2022-08-30T16:10:29.604Z,24.26
2022-08-30T16:15:35.780Z,24.00
2022-08-30T16:20:44.154Z,23.98
2022-08-30T16:25:47.198Z,23.71
2022-08-30T16:30:50.331Z,23.75
2022-08-30T16:35:56.385Z,23.63
2022-08-30T16:40:59.354Z,23.51
2022-08-30T16:46:07.620Z,23.30
2022-08-30T16:51:14.751Z,22.85
2022-08-30T16:56:22.132Z,22.54
2022-08-30T17:01:27.537Z,22.19
2022-08-30T17:06:30.786Z,21.91
2022-08-30T17:11:40.311Z,21.62
2022-08-30T17:16:43.482Z,21.36
2022-08-30T17:21:48.303Z,21.11
2022-08-30T17:26:51.914Z,20.87
2022-08-30T17:37:21.580Z,20.35
2022-08-30T17:42:24.625Z,20.11
2022-08-30T17:47:32.876Z,19.86
2022-08-30T17:52:39.519Z,19.57
2022-08-30T17:57:43.265Z,19.38
2022-08-30T18:02:46.580Z,19.21
2022-08-30T18:07:49.778Z,19.13
2022-08-30T18:12:52.659Z,18.97
2022-08-30T18:17:56.073Z,18.77
2022-08-30T18:23:00.204Z,18.63
2022-08-30T18:28:03.227Z,18.37
2022-08-30T18:33:06.667Z,18.23
2022-08-30T18:38:11.184Z,18.20
2022-08-30T18:43:15.797Z,17.99
2022-08-30T18:48:19.402Z,17.82
2022-08-30T18:53:29.138Z,17.69
2022-08-30T18:58:32.415Z,17.54
2022-08-30T19:03:36.100Z,17.48
2022-08-30T19:08:42.102Z,17.71
2022-08-30T19:13:49.005Z,17.86
2022-08-30T19:18:57.154Z,17.76
2022-08-30T19:24:00.709Z,17.60
2022-08-30T19:29:04.122Z,17.44
2022-08-30T19:34:07.377Z,17.35
2022-08-30T19:39:10.920Z,17.29
2022-08-30T19:44:14.326Z,17.26
2022-08-30T20:24:24.148Z,20.59
2022-08-30T20:40:18.784Z,16.02
2022-08-30T20:45:21.878Z,15.95
2022-08-30T20:50:25.079Z,15.86
2022-08-30T20:55:28.629Z,15.83
2022-08-30T21:00:32.009Z,15.67
2022-08-30T21:05:35.379Z,15.55
2022-08-30T21:10:38.401Z,15.35
2022-08-30T21:15:46.512Z,15.39
2022-08-30T21:20:52.221Z,15.41
2022-08-30T21:25:55.285Z,15.56
2022-08-30T21:31:11.972Z,15.51
2022-08-30T21:36:34.448Z,15.31
2022-08-30T21:41:38.302Z,15.32
2022-08-30T21:46:42.356Z,15.33
2022-08-30T21:51:47.506Z,15.31
2022-08-30T21:56:52.474Z,15.34
2022-08-30T22:01:56.459Z,15.21
2022-08-30T22:07:01.014Z,15.14
2022-08-30T22:12:06.834Z,15.05
2022-08-30T22:17:11.386Z,14.92
2022-08-30T22:22:14.879Z,14.88
2022-08-30T22:27:18.004Z,14.84
2022-08-30T22:32:21.940Z,14.78
2022-08-30T22:37:25.303Z,14.74
2022-08-30T22:42:28.612Z,14.74
2022-08-30T22:47:31.871Z,14.71
2022-08-30T22:52:35.084Z,14.76
2022-08-30T22:57:40.399Z,14.68
2022-08-30T23:02:48.334Z,14.71
2022-08-30T23:07:54.259Z,14.66
2022-08-30T23:13:00.744Z,14.55
2022-08-30T23:18:04.628Z,14.51
2022-08-30T23:23:07.644Z,14.43
2022-08-30T23:28:29.844Z,14.45
2022-08-30T23:33:52.912Z,14.56
2022-08-30T23:39:15.312Z,14.71
2022-08-30T23:44:37.012Z,14.73
2022-08-30T23:49:58.540Z,14.84
2022-08-30T23:55:20.221Z,15.01
